Address 0x99d63c6cf7092f63e697c79ed5dbbeb0d3b986e8 3

 
 
Txn Hash Method
Block
From
To
Value [Txn Fee]
0xd1171c1413984c3f353664c98c48fb751a16033193e15a8fcdb8563d47c5de140x0d6f24af299530652022-06-24 17:38:596 days 1 hr ago0x99d63c6cf7092f63e697c79ed5dbbeb0d3b986e8OUT 0xd814b26554204245a30f8a42c289af582421bf040 MATIC0.00937684 55
0x5cd82ec9546570334a7b3497b64051e480abfbc4d3cfbfb9551a7833cb0c43a6Harvest All299530512022-06-24 17:38:316 days 1 hr ago0x99d63c6cf7092f63e697c79ed5dbbeb0d3b986e8OUT 0xd814b26554204245a30f8a42c289af582421bf040 MATIC0.00717904 55
0x7e23aec1bf5c65e34e4a62937b5a35a408b5e82fa4a33229fabcb23f8852ef9a0x0d6f24af299202872022-06-23 21:17:286 days 21 hrs ago0x99d63c6cf7092f63e697c79ed5dbbeb0d3b986e8OUT 0xd814b26554204245a30f8a42c289af582421bf040 MATIC0.008866 52
0xb019d83b821ccba626ffea463a1ec436c3633bfeefc241250cc6163264838241Swap Exact Token...299202622022-06-23 21:16:386 days 22 hrs ago0x99d63c6cf7092f63e697c79ed5dbbeb0d3b986e8OUT SushiSwap: Router0 MATIC0.003698575976 30.069967859
0xef69b337009fbd35c6489fabfb070f2a4a41a91d2b8de68a83a745fe33ff9e36Harvest All299202392022-06-23 21:15:486 days 22 hrs ago0x99d63c6cf7092f63e697c79ed5dbbeb0d3b986e8OUT 0xd814b26554204245a30f8a42c289af582421bf040 MATIC0.006787456 52
0x31996ddb9de73197bc792f488d031898ddff605d32b1f410d92b3aa504e2646fTransfer299201812022-06-23 21:13:486 days 22 hrs ago0x22f6cc8738308a8c92a6a71ea67832463d1fec0d IN 0x99d63c6cf7092f63e697c79ed5dbbeb0d3b986e80.1 MATIC0.008874439814 422.592372126
0x3a20ca40b56bedfebc2b2c87fd34540776fb632052024fc98e4277a04436117d0x0d6f24af297610762022-06-19 17:16:2011 days 2 hrs ago0x99d63c6cf7092f63e697c79ed5dbbeb0d3b986e8OUT 0xd814b26554204245a30f8a42c289af582421bf040 MATIC0.011421892 67
0xc9909954808cb8cb255e9184a6ae18a6dcd6580637be615fb7784b68b010c7bf0x0d6f24af297610612022-06-19 17:15:5011 days 2 hrs ago0x99d63c6cf7092f63e697c79ed5dbbeb0d3b986e8OUT 0xd814b26554204245a30f8a42c289af582421bf040 MATIC0.011421892 67
0x69417cc174f123b1d5fd321383b9b95cc30aae0c17396b2db4d3dcc909242c530x0d6f24af296628382022-06-17 4:15:0013 days 15 hrs ago0x99d63c6cf7092f63e697c79ed5dbbeb0d3b986e8OUT 0xd814b26554204245a30f8a42c289af582421bf040 MATIC0.01193332 70
0x245c340350020e6fb468d4c45d4267678361516944af0fcc497aa7d6330cc1a4Harvest All296628252022-06-17 4:14:3413 days 15 hrs ago0x99d63c6cf7092f63e697c79ed5dbbeb0d3b986e8OUT 0xd814b26554204245a30f8a42c289af582421bf040 MATIC0.00913696 70
0x1ad01af16b963d208e248b2df5265e642a3158e334776f1cadf3467ffca391ee0x0d6f24af296128502022-06-15 21:26:3714 days 21 hrs ago0x99d63c6cf7092f63e697c79ed5dbbeb0d3b986e8OUT 0xd814b26554204245a30f8a42c289af582421bf040 MATIC0.009035228 53
0x07a073ddeddbd28ba291f61ed2b551f6fd2ed7db6a14ee7f1350a296c8351621Harvest All296128432022-06-15 21:26:2314 days 21 hrs ago0x99d63c6cf7092f63e697c79ed5dbbeb0d3b986e8OUT 0xd814b26554204245a30f8a42c289af582421bf040 MATIC0.006917984 53
0x9fb03bc854bbcd90b6ed4b69fa194995eaf4f5a964da09b4b0dcf8484f9ed9580x0d6f24af295786252022-06-15 1:07:3615 days 18 hrs ago0x99d63c6cf7092f63e697c79ed5dbbeb0d3b986e8OUT 0xd814b26554204245a30f8a42c289af582421bf040 MATIC0.006647784 39
0xc61e406130688cfa0226da5e8f1e5f155923a16cb8d0ed00e43447bf55f551d7Harvest All295786172022-06-15 1:07:1615 days 18 hrs ago0x99d63c6cf7092f63e697c79ed5dbbeb0d3b986e8OUT 0xd814b26554204245a30f8a42c289af582421bf040 MATIC0.005090592 39
0x8f69f79c169e11e7b95aaf53f9a387aa10ebb2d8886fa4cc7e8e08db327ec7ba0x0d6f24af295261832022-06-13 18:10:4117 days 1 hr ago0x99d63c6cf7092f63e697c79ed5dbbeb0d3b986e8OUT 0xd814b26554204245a30f8a42c289af582421bf040 MATIC0.032559388 191
0x4dcff2ccb2c585b12451fb6bbaf9c4edb8422fb1ffdd70843f7f8c96582b2d77Harvest All295261722022-06-13 18:10:1917 days 1 hr ago0x99d63c6cf7092f63e697c79ed5dbbeb0d3b986e8OUT 0xd814b26554204245a30f8a42c289af582421bf040 MATIC0.024930848 191
0x9eecc665cffb07f078829b4212237d2dd17a325e1d0009fe82bc535852f0f5b90x0d6f24af294663522022-06-12 6:25:0218 days 12 hrs ago0x99d63c6cf7092f63e697c79ed5dbbeb0d3b986e8OUT 0xd814b26554204245a30f8a42c289af582421bf040 MATIC0.006649032 39
0x66e1138d4c09fcdf94662286dc4b0233515519817075d3c3a873eca0fefb2893Harvest All294663392022-06-12 6:24:3618 days 12 hrs ago0x99d63c6cf7092f63e697c79ed5dbbeb0d3b986e8OUT 0xd814b26554204245a30f8a42c289af582421bf040 MATIC0.005090592 39
0x13b8c610f9cd2cd53242236aaa6f1e5965b5b4af65766c0f5a7fa457a355e3da0x0d6f24af294258732022-06-11 6:45:0819 days 12 hrs ago0x99d63c6cf7092f63e697c79ed5dbbeb0d3b986e8OUT 0xd814b26554204245a30f8a42c289af582421bf040 MATIC0.005626104 33
0x8c45c7fb47edb9d3fb8fcf4d85758166e98ee6370109780e8bcb3c686171b62bHarvest All294258562022-06-11 6:44:3419 days 12 hrs ago0x99d63c6cf7092f63e697c79ed5dbbeb0d3b986e8OUT 0xd814b26554204245a30f8a42c289af582421bf040 MATIC0.004871724 33
0x70dfc2775172a2064d19ad72b1f5e01261090c738b97c88d9d14810709264687Swap And Send293692912022-06-09 20:41:4920 days 22 hrs ago0x99d63c6cf7092f63e697c79ed5dbbeb0d3b986e8OUT 0x76b22b8c1079a44f1211d867d68b1eda76a635a70 MATIC0.007499460389 31.990600012
0x3cac28e0833e682ff5e2b145c02b89ff944befec3971ae36ab63d3ff813a0fcbApprove293692572022-06-09 20:40:3720 days 22 hrs ago0x99d63c6cf7092f63e697c79ed5dbbeb0d3b986e8OUT USD Coin0 MATIC0.00189768785 32.469080011
0x7e9c76d04bcadbe23d2d340add48f72e20d04813bd5aac1e0dd8ca16b2d50683Swap Exact Token...293692062022-06-09 20:38:5120 days 22 hrs ago0x99d63c6cf7092f63e697c79ed5dbbeb0d3b986e8OUT SushiSwap: Router0 MATIC0.004131030001 30.000000013
0x42a58db0a2d23de97962aa10a4d2688057f012d19e1100e6becd014c574466beWithdraw293691662022-06-09 20:37:3120 days 22 hrs ago0x99d63c6cf7092f63e697c79ed5dbbeb0d3b986e8OUT 0xd814b26554204245a30f8a42c289af582421bf040 MATIC0.007582422 61
0x2c93ce6689c1e1cb6a4ca6b37f3187ac95224bee0153d4e1e308cb9793a7a5d9Withdraw293690272022-06-09 20:32:4520 days 22 hrs ago0x99d63c6cf7092f63e697c79ed5dbbeb0d3b986e8OUT 0xd814b26554204245a30f8a42c289af582421bf040 MATIC0.007583154 61
[ Download CSV Export 
Parent Txn Hash Block From To Value
Loading

Contract Name:
0 MATIC

Compiler Version
0

Optimization Enabled:
0 MATIC

Other Settings:
-NA-
Block Transaction Gas Used Reward
Age Block Fee Address BC Fee Address Voting Power Jailed Incoming
Block Uncle Number Difficulty Gas Used Reward
Loading
Loading
Make sure to use the "Vote Down" button for any spammy posts, and the "Vote Up" for interesting conversations.